sensor_id;sensor_type;location;lat;lon;timestamp;pressure;altitude;pressure_sealevel;temperature;humidity
71248;BME280;73325;51.138;6.950;2024-03-22T00:02:27;101728.00;;;11.12;91.15
71248;BME280;73325;51.138;6.950;2024-03-22T00:04:57;101725.00;;;11.13;91.14
71248;BME280;73325;51.138;6.950;2024-03-22T00:07:27;101724.00;;;11.15;90.99
71248;BME280;73325;51.138;6.950;2024-03-22T00:09:58;101724.00;;;11.17;90.72
71248;BME280;73325;51.138;6.950;2024-03-22T00:12:28;101724.00;;;11.18;90.56
71248;BME280;73325;51.138;6.950;2024-03-22T00:14:58;101724.00;;;11.20;90.59
71248;BME280;73325;51.138;6.950;2024-03-22T00:17:29;101725.00;;;11.21;90.53
71248;BME280;73325;51.138;6.950;2024-03-22T00:20:00;101726.00;;;11.21;90.63
71248;BME280;73325;51.138;6.950;2024-03-22T00:22:29;101724.00;;;11.21;90.42
71248;BME280;73325;51.138;6.950;2024-03-22T00:25:00;101722.00;;;11.21;90.49
71248;BME280;73325;51.138;6.950;2024-03-22T00:27:30;101720.00;;;11.21;90.16
71248;BME280;73325;51.138;6.950;2024-03-22T00:30:00;101718.00;;;11.21;90.24
71248;BME280;73325;51.138;6.950;2024-03-22T00:32:30;101717.00;;;11.21;90.21
71248;BME280;73325;51.138;6.950;2024-03-22T00:35:01;101714.00;;;11.21;90.05
71248;BME280;73325;51.138;6.950;2024-03-22T00:37:31;101711.00;;;11.21;89.98
71248;BME280;73325;51.138;6.950;2024-03-22T00:40:01;101709.00;;;11.21;89.92
71248;BME280;73325;51.138;6.950;2024-03-22T00:42:32;101706.00;;;11.21;89.90
71248;BME280;73325;51.138;6.950;2024-03-22T00:45:02;101704.00;;;11.21;89.72
71248;BME280;73325;51.138;6.950;2024-03-22T00:47:33;101701.00;;;11.22;89.58
71248;BME280;73325;51.138;6.950;2024-03-22T00:50:04;101697.00;;;11.22;89.49
71248;BME280;73325;51.138;6.950;2024-03-22T00:52:33;101692.00;;;11.23;89.51
71248;BME280;73325;51.138;6.950;2024-03-22T00:55:04;101687.00;;;11.23;89.50
71248;BME280;73325;51.138;6.950;2024-03-22T00:57:34;101683.00;;;11.23;89.58
71248;BME280;73325;51.138;6.950;2024-03-22T01:00:05;101678.00;;;11.23;89.56
71248;BME280;73325;51.138;6.950;2024-03-22T01:02:35;101673.00;;;11.23;89.43
71248;BME280;73325;51.138;6.950;2024-03-22T01:05:06;101670.00;;;11.24;89.56
71248;BME280;73325;51.138;6.950;2024-03-22T01:07:36;101667.00;;;11.24;89.49
71248;BME280;73325;51.138;6.950;2024-03-22T01:10:06;101665.00;;;11.25;89.41
71248;BME280;73325;51.138;6.950;2024-03-22T01:12:36;101664.00;;;11.26;89.34
71248;BME280;73325;51.138;6.950;2024-03-22T01:15:07;101662.00;;;11.26;89.51
71248;BME280;73325;51.138;6.950;2024-03-22T01:17:36;101659.00;;;11.27;89.50
71248;BME280;73325;51.138;6.950;2024-03-22T01:20:07;101656.00;;;11.27;89.41
71248;BME280;73325;51.138;6.950;2024-03-22T01:22:37;101654.00;;;11.27;89.19
71248;BME280;73325;51.138;6.950;2024-03-22T01:25:08;101651.00;;;11.28;89.22
71248;BME280;73325;51.138;6.950;2024-03-22T01:27:38;101648.00;;;11.28;89.21
71248;BME280;73325;51.138;6.950;2024-03-22T01:30:09;101647.00;;;11.28;89.41
71248;BME280;73325;51.138;6.950;2024-03-22T01:32:39;101645.00;;;11.28;89.50
71248;BME280;73325;51.138;6.950;2024-03-22T01:35:10;101642.00;;;11.28;89.34
71248;BME280;73325;51.138;6.950;2024-03-22T01:37:40;101639.00;;;11.28;89.35
71248;BME280;73325;51.138;6.950;2024-03-22T01:40:11;101637.00;;;11.28;89.41
71248;BME280;73325;51.138;6.950;2024-03-22T01:42:41;101635.00;;;11.28;89.50
71248;BME280;73325;51.138;6.950;2024-03-22T01:45:14;101632.00;;;11.27;89.30
71248;BME280;73325;51.138;6.950;2024-03-22T01:47:41;101628.00;;;11.27;89.62
71248;BME280;73325;51.138;6.950;2024-03-22T01:50:11;101625.00;;;11.27;89.51
71248;BME280;73325;51.138;6.950;2024-03-22T01:52:42;101620.00;;;11.26;89.63
71248;BME280;73325;51.138;6.950;2024-03-22T01:55:12;101617.00;;;11.25;89.66
71248;BME280;73325;51.138;6.950;2024-03-22T01:57:43;101612.00;;;11.24;89.62
71248;BME280;73325;51.138;6.950;2024-03-22T02:00:13;101608.00;;;11.24;89.34
71248;BME280;73325;51.138;6.950;2024-03-22T02:02:42;101604.00;;;11.23;89.26
71248;BME280;73325;51.138;6.950;2024-03-22T02:05:17;101602.00;;;11.23;89.21
71248;BME280;73325;51.138;6.950;2024-03-22T02:07:43;101599.00;;;11.23;89.12
71248;BME280;73325;51.138;6.950;2024-03-22T02:10:14;101596.00;;;11.24;89.62
71248;BME280;73325;51.138;6.950;2024-03-22T02:12:44;101595.00;;;11.23;89.47
71248;BME280;73325;51.138;6.950;2024-03-22T02:15:15;101593.00;;;11.23;89.72
71248;BME280;73325;51.138;6.950;2024-03-22T02:17:45;101589.00;;;11.23;89.43
71248;BME280;73325;51.138;6.950;2024-03-22T02:20:15;101584.00;;;11.23;89.15
71248;BME280;73325;51.138;6.950;2024-03-22T02:22:46;101578.00;;;11.23;89.22
71248;BME280;73325;51.138;6.950;2024-03-22T02:25:16;101573.00;;;11.23;89.27
71248;BME280;73325;51.138;6.950;2024-03-22T02:27:46;101567.00;;;11.23;89.09
71248;BME280;73325;51.138;6.950;2024-03-22T02:30:17;101562.00;;;11.23;89.16
71248;BME280;73325;51.138;6.950;2024-03-22T02:32:47;101557.00;;;11.24;89.11
71248;BME280;73325;51.138;6.950;2024-03-22T02:35:17;101552.00;;;11.24;89.31
71248;BME280;73325;51.138;6.950;2024-03-22T02:37:48;101547.00;;;11.25;88.98
71248;BME280;73325;51.138;6.950;2024-03-22T02:40:18;101543.00;;;11.25;89.04
71248;BME280;73325;51.138;6.950;2024-03-22T02:42:48;101540.00;;;11.26;89.05
71248;BME280;73325;51.138;6.950;2024-03-22T02:45:18;101537.00;;;11.27;88.91
71248;BME280;73325;51.138;6.950;2024-03-22T02:47:49;101534.00;;;11.28;89.03
71248;BME280;73325;51.138;6.950;2024-03-22T02:50:19;101532.00;;;11.28;89.13
71248;BME280;73325;51.138;6.950;2024-03-22T02:52:49;101530.00;;;11.29;88.96
71248;BME280;73325;51.138;6.950;2024-03-22T02:55:20;101527.00;;;11.30;89.08
71248;BME280;73325;51.138;6.950;2024-03-22T02:57:50;101526.00;;;11.30;89.51
71248;BME280;73325;51.138;6.950;2024-03-22T03:00:20;101525.00;;;11.30;90.19
71248;BME280;73325;51.138;6.950;2024-03-22T03:02:51;101524.00;;;11.30;90.42
71248;BME280;73325;51.138;6.950;2024-03-22T03:05:21;101523.00;;;11.28;90.42
71248;BME280;73325;51.138;6.950;2024-03-22T03:07:51;101522.00;;;11.27;90.76
71248;BME280;73325;51.138;6.950;2024-03-22T03:10:21;101519.00;;;11.25;91.14
71248;BME280;73325;51.138;6.950;2024-03-22T03:12:54;101516.00;;;11.23;91.22
71248;BME280;73325;51.138;6.950;2024-03-22T03:15:22;101512.00;;;11.21;91.38
71248;BME280;73325;51.138;6.950;2024-03-22T03:17:52;101511.00;;;11.19;91.24
71248;BME280;73325;51.138;6.950;2024-03-22T03:20:23;101509.00;;;11.17;91.42
71248;BME280;73325;51.138;6.950;2024-03-22T03:22:53;101506.00;;;11.15;91.29
71248;BME280;73325;51.138;6.950;2024-03-22T03:25:23;101502.00;;;11.13;91.33
71248;BME280;73325;51.138;6.950;2024-03-22T03:27:54;101498.00;;;11.12;91.52
71248;BME280;73325;51.138;6.950;2024-03-22T03:30:24;101494.00;;;11.10;91.43
71248;BME280;73325;51.138;6.950;2024-03-22T03:32:54;101490.00;;;11.08;91.41
71248;BME280;73325;51.138;6.950;2024-03-22T03:35:24;101487.00;;;11.05;91.41
71248;BME280;73325;51.138;6.950;2024-03-22T03:37:55;101485.00;;;11.03;91.38
71248;BME280;73325;51.138;6.950;2024-03-22T03:40:25;101484.00;;;11.00;91.36
71248;BME280;73325;51.138;6.950;2024-03-22T03:42:55;101482.00;;;10.97;91.47
71248;BME280;73325;51.138;6.950;2024-03-22T03:45:26;101482.00;;;10.93;91.67
71248;BME280;73325;51.138;6.950;2024-03-22T03:47:56;101480.00;;;10.90;91.74
71248;BME280;73325;51.138;6.950;2024-03-22T03:50:26;101478.00;;;10.88;91.79
71248;BME280;73325;51.138;6.950;2024-03-22T03:52:57;101476.00;;;10.86;91.86
71248;BME280;73325;51.138;6.950;2024-03-22T03:55:27;101473.00;;;10.86;91.92
71248;BME280;73325;51.138;6.950;2024-03-22T03:57:57;101470.00;;;10.85;91.98
71248;BME280;73325;51.138;6.950;2024-03-22T04:00:27;101467.00;;;10.86;91.90
71248;BME280;73325;51.138;6.950;2024-03-22T04:02:58;101465.00;;;10.86;91.74
71248;BME280;73325;51.138;6.950;2024-03-22T04:05:28;101463.00;;;10.87;91.68
71248;BME280;73325;51.138;6.950;2024-03-22T04:07:58;101462.00;;;10.87;91.74
71248;BME280;73325;51.138;6.950;2024-03-22T04:10:29;101459.00;;;10.87;91.54
71248;BME280;73325;51.138;6.950;2024-03-22T04:12:59;101456.00;;;10.86;91.49
71248;BME280;73325;51.138;6.950;2024-03-22T04:15:33;101453.00;;;10.85;91.49
71248;BME280;73325;51.138;6.950;2024-03-22T04:17:59;101451.00;;;10.83;91.59
71248;BME280;73325;51.138;6.950;2024-03-22T04:20:30;101447.00;;;10.81;91.65
71248;BME280;73325;51.138;6.950;2024-03-22T04:23:00;101443.00;;;10.79;91.70
71248;BME280;73325;51.138;6.950;2024-03-22T04:25:30;101439.00;;;10.77;91.70
71248;BME280;73325;51.138;6.950;2024-03-22T04:28:00;101436.00;;;10.74;91.70
71248;BME280;73325;51.138;6.950;2024-03-22T04:30:31;101434.00;;;10.71;91.89
71248;BME280;73325;51.138;6.950;2024-03-22T04:33:01;101431.00;;;10.68;91.99
71248;BME280;73325;51.138;6.950;2024-03-22T04:35:31;101429.00;;;10.65;92.04
71248;BME280;73325;51.138;6.950;2024-03-22T04:38:01;101428.00;;;10.63;92.07
71248;BME280;73325;51.138;6.950;2024-03-22T04:40:32;101426.00;;;10.61;92.13
71248;BME280;73325;51.138;6.950;2024-03-22T04:43:02;101422.00;;;10.59;92.14
71248;BME280;73325;51.138;6.950;2024-03-22T04:45:33;101419.00;;;10.58;92.16
71248;BME280;73325;51.138;6.950;2024-03-22T04:48:04;101414.00;;;10.57;92.20
71248;BME280;73325;51.138;6.950;2024-03-22T04:50:33;101410.00;;;10.56;92.21
71248;BME280;73325;51.138;6.950;2024-03-22T04:53:03;101406.00;;;10.55;92.16
71248;BME280;73325;51.138;6.950;2024-03-22T04:55:34;101403.00;;;10.55;92.31
71248;BME280;73325;51.138;6.950;2024-03-22T04:58:07;101401.00;;;10.55;92.26
71248;BME280;73325;51.138;6.950;2024-03-22T05:00:34;101397.00;;;10.56;92.28
71248;BME280;73325;51.138;6.950;2024-03-22T05:03:05;101393.00;;;10.56;92.35
71248;BME280;73325;51.138;6.950;2024-03-22T05:05:35;101390.00;;;10.57;92.21
71248;BME280;73325;51.138;6.950;2024-03-22T05:08:06;101387.00;;;10.59;92.31
71248;BME280;73325;51.138;6.950;2024-03-22T05:10:36;101386.00;;;10.61;92.32
71248;BME280;73325;51.138;6.950;2024-03-22T05:13:06;101386.00;;;10.62;92.24
71248;BME280;73325;51.138;6.950;2024-03-22T05:15:36;101383.00;;;10.64;92.07
71248;BME280;73325;51.138;6.950;2024-03-22T05:18:07;101380.00;;;10.66;92.12
71248;BME280;73325;51.138;6.950;2024-03-22T05:20:37;101378.00;;;10.68;92.07
71248;BME280;73325;51.138;6.950;2024-03-22T05:23:07;101375.00;;;10.70;92.03
71248;BME280;73325;51.138;6.950;2024-03-22T05:25:37;101375.00;;;10.72;91.97
71248;BME280;73325;51.138;6.950;2024-03-22T05:28:08;101374.00;;;10.73;92.02
71248;BME280;73325;51.138;6.950;2024-03-22T05:30:38;101374.00;;;10.75;91.87
71248;BME280;73325;51.138;6.950;2024-03-22T05:33:08;101375.00;;;10.77;92.05
71248;BME280;73325;51.138;6.950;2024-03-22T05:35:39;101375.00;;;10.78;92.05
71248;BME280;73325;51.138;6.950;2024-03-22T05:38:09;101376.00;;;10.79;92.05
71248;BME280;73325;51.138;6.950;2024-03-22T05:40:39;101374.00;;;10.80;91.89
71248;BME280;73325;51.138;6.950;2024-03-22T05:43:09;101373.00;;;10.82;92.11
71248;BME280;73325;51.138;6.950;2024-03-22T05:45:40;101372.00;;;10.83;91.95
71248;BME280;73325;51.138;6.950;2024-03-22T05:48:10;101372.00;;;10.85;91.98
71248;BME280;73325;51.138;6.950;2024-03-22T05:50:40;101371.00;;;10.88;91.84
71248;BME280;73325;51.138;6.950;2024-03-22T05:53:11;101370.00;;;10.90;92.01
71248;BME280;73325;51.138;6.950;2024-03-22T05:55:42;101369.00;;;10.93;91.84
71248;BME280;73325;51.138;6.950;2024-03-22T05:58:12;101369.00;;;10.95;91.81
71248;BME280;73325;51.138;6.950;2024-03-22T06:00:43;101367.00;;;10.98;91.76
71248;BME280;73325;51.138;6.950;2024-03-22T06:03:13;101366.00;;;11.02;91.88
71248;BME280;73325;51.138;6.950;2024-03-22T06:05:43;101366.00;;;11.05;91.69
71248;BME280;73325;51.138;6.950;2024-03-22T06:08:14;101365.00;;;11.09;91.59
71248;BME280;73325;51.138;6.950;2024-03-22T06:10:44;101364.00;;;11.13;91.50
71248;BME280;73325;51.138;6.950;2024-03-22T06:13:14;101364.00;;;11.16;91.65
71248;BME280;73325;51.138;6.950;2024-03-22T06:15:48;101366.00;;;11.20;91.36
71248;BME280;73325;51.138;6.950;2024-03-22T06:18:15;101366.00;;;11.23;91.46
71248;BME280;73325;51.138;6.950;2024-03-22T06:20:46;101367.00;;;11.26;91.28
71248;BME280;73325;51.138;6.950;2024-03-22T06:23:16;101368.00;;;11.29;91.31
71248;BME280;73325;51.138;6.950;2024-03-22T06:25:53;101367.00;;;11.32;91.43
71248;BME280;73325;51.138;6.950;2024-03-22T06:28:16;101366.00;;;11.35;91.48
71248;BME280;73325;51.138;6.950;2024-03-22T06:30:47;101364.00;;;11.38;91.24
71248;BME280;73325;51.138;6.950;2024-03-22T06:33:17;101363.00;;;11.41;91.40
71248;BME280;73325;51.138;6.950;2024-03-22T06:35:47;101361.00;;;11.44;91.32
71248;BME280;73325;51.138;6.950;2024-03-22T06:38:18;101357.00;;;11.48;91.31
71248;BME280;73325;51.138;6.950;2024-03-22T06:40:48;101352.00;;;11.53;91.45
71248;BME280;73325;51.138;6.950;2024-03-22T06:43:18;101347.00;;;11.59;91.62
71248;BME280;73325;51.138;6.950;2024-03-22T06:45:48;101343.00;;;11.65;91.38
71248;BME280;73325;51.138;6.950;2024-03-22T06:48:19;101340.00;;;11.72;91.01
71248;BME280;73325;51.138;6.950;2024-03-22T06:50:49;101338.00;;;11.80;91.40
71248;BME280;73325;51.138;6.950;2024-03-22T06:53:19;101336.00;;;11.88;91.08
71248;BME280;73325;51.138;6.950;2024-03-22T06:55:50;101333.00;;;11.96;91.09
71248;BME280;73325;51.138;6.950;2024-03-22T06:58:20;101331.00;;;12.05;90.62
71248;BME280;73325;51.138;6.950;2024-03-22T07:00:50;101330.00;;;12.14;90.63
71248;BME280;73325;51.138;6.950;2024-03-22T07:03:21;101330.00;;;12.23;90.34
71248;BME280;73325;51.138;6.950;2024-03-22T07:05:51;101329.00;;;12.33;90.42
71248;BME280;73325;51.138;6.950;2024-03-22T07:08:21;101328.00;;;12.43;90.00
71248;BME280;73325;51.138;6.950;2024-03-22T07:10:51;101329.00;;;12.53;89.72
71248;BME280;73325;51.138;6.950;2024-03-22T07:13:22;101329.00;;;12.63;89.46
71248;BME280;73325;51.138;6.950;2024-03-22T07:15:52;101328.00;;;12.72;88.66
71248;BME280;73325;51.138;6.950;2024-03-22T07:18:22;101326.00;;;12.81;88.78
71248;BME280;73325;51.138;6.950;2024-03-22T07:20:53;101324.00;;;12.90;88.51
71248;BME280;73325;51.138;6.950;2024-03-22T07:23:23;101322.00;;;12.97;88.11
71248;BME280;73325;51.138;6.950;2024-03-22T07:25:53;101321.00;;;13.04;87.61
71248;BME280;73325;51.138;6.950;2024-03-22T07:28:23;101320.00;;;13.09;87.79
71248;BME280;73325;51.138;6.950;2024-03-22T07:30:54;101320.00;;;13.13;87.56
71248;BME280;73325;51.138;6.950;2024-03-22T07:33:24;101319.00;;;13.16;87.54
71248;BME280;73325;51.138;6.950;2024-03-22T07:35:54;101317.00;;;13.19;87.43
71248;BME280;73325;51.138;6.950;2024-03-22T07:38:24;101315.00;;;13.21;87.63
71248;BME280;73325;51.138;6.950;2024-03-22T07:40:55;101313.00;;;13.22;88.16
71248;BME280;73325;51.138;6.950;2024-03-22T07:43:25;101313.00;;;13.25;88.49
71248;BME280;73325;51.138;6.950;2024-03-22T07:45:55;101314.00;;;13.27;88.29
71248;BME280;73325;51.138;6.950;2024-03-22T07:48:25;101315.00;;;13.32;88.46
71248;BME280;73325;51.138;6.950;2024-03-22T07:50:57;101314.00;;;13.37;88.51
71248;BME280;73325;51.138;6.950;2024-03-22T07:53:26;101312.00;;;13.45;88.05
71248;BME280;73325;51.138;6.950;2024-03-22T07:55:57;101311.00;;;13.55;87.91
71248;BME280;73325;51.138;6.950;2024-03-22T07:58:27;101308.00;;;13.66;87.69
71248;BME280;73325;51.138;6.950;2024-03-22T08:00:57;101305.00;;;13.78;87.27
71248;BME280;73325;51.138;6.950;2024-03-22T08:03:28;101302.00;;;13.92;87.37
71248;BME280;73325;51.138;6.950;2024-03-22T08:05:58;101299.00;;;14.08;86.39
71248;BME280;73325;51.138;6.950;2024-03-22T08:08:28;101296.00;;;14.25;85.62
71248;BME280;73325;51.138;6.950;2024-03-22T08:10:59;101294.00;;;14.42;84.94
71248;BME280;73325;51.138;6.950;2024-03-22T08:13:29;101294.00;;;14.58;83.60
71248;BME280;73325;51.138;6.950;2024-03-22T08:15:59;101292.00;;;14.71;83.25
71248;BME280;73325;51.138;6.950;2024-03-22T08:18:29;101291.00;;;14.83;82.13
71248;BME280;73325;51.138;6.950;2024-03-22T08:21:00;101289.00;;;14.94;81.99
71248;BME280;73325;51.138;6.950;2024-03-22T08:23:30;101287.00;;;15.06;82.13
71248;BME280;73325;51.138;6.950;2024-03-22T08:26:00;101286.00;;;15.19;80.94
71248;BME280;73325;51.138;6.950;2024-03-22T08:28:31;101284.00;;;15.32;80.83
71248;BME280;73325;51.138;6.950;2024-03-22T08:31:04;101282.00;;;15.45;79.02
71248;BME280;73325;51.138;6.950;2024-03-22T08:33:31;101281.00;;;15.55;79.17
71248;BME280;73325;51.138;6.950;2024-03-22T08:36:02;101281.00;;;15.64;80.01
71248;BME280;73325;51.138;6.950;2024-03-22T08:38:32;101280.00;;;15.72;78.38
71248;BME280;73325;51.138;6.950;2024-03-22T08:41:03;101280.00;;;15.77;78.36
71248;BME280;73325;51.138;6.950;2024-03-22T08:43:33;101280.00;;;15.83;79.93
71248;BME280;73325;51.138;6.950;2024-03-22T08:46:04;101278.00;;;15.88;78.60
71248;BME280;73325;51.138;6.950;2024-03-22T08:48:34;101276.00;;;15.93;78.37
71248;BME280;73325;51.138;6.950;2024-03-22T08:51:05;101276.00;;;15.98;77.24
71248;BME280;73325;51.138;6.950;2024-03-22T08:53:35;101276.00;;;16.02;77.20
71248;BME280;73325;51.138;6.950;2024-03-22T08:56:05;101276.00;;;16.05;78.27
71248;BME280;73325;51.138;6.950;2024-03-22T08:58:35;101274.00;;;16.08;77.48
71248;BME280;73325;51.138;6.950;2024-03-22T09:01:06;101272.00;;;16.11;77.90
71248;BME280;73325;51.138;6.950;2024-03-22T09:03:36;101272.00;;;16.13;78.23
71248;BME280;73325;51.138;6.950;2024-03-22T09:06:07;101272.00;;;16.16;76.93
71248;BME280;73325;51.138;6.950;2024-03-22T09:08:37;101271.00;;;16.17;76.73
71248;BME280;73325;51.138;6.950;2024-03-22T09:11:07;101269.00;;;16.18;77.80
71248;BME280;73325;51.138;6.950;2024-03-22T09:13:37;101267.00;;;16.18;77.92
71248;BME280;73325;51.138;6.950;2024-03-22T09:16:08;101266.00;;;16.18;78.50
71248;BME280;73325;51.138;6.950;2024-03-22T09:18:38;101264.00;;;16.20;78.11
71248;BME280;73325;51.138;6.950;2024-03-22T09:21:08;101263.00;;;16.23;77.51
71248;BME280;73325;51.138;6.950;2024-03-22T09:23:38;101263.00;;;16.26;77.00
71248;BME280;73325;51.138;6.950;2024-03-22T09:26:09;101262.00;;;16.29;77.57
71248;BME280;73325;51.138;6.950;2024-03-22T09:28:39;101260.00;;;16.32;77.83
71248;BME280;73325;51.138;6.950;2024-03-22T09:31:09;101258.00;;;16.36;77.90
71248;BME280;73325;51.138;6.950;2024-03-22T09:33:39;101255.00;;;16.38;77.04
71248;BME280;73325;51.138;6.950;2024-03-22T09:36:10;101252.00;;;16.40;76.53
71248;BME280;73325;51.138;6.950;2024-03-22T09:38:41;101248.00;;;16.40;76.53
71248;BME280;73325;51.138;6.950;2024-03-22T09:41:12;101244.00;;;16.41;75.46
71248;BME280;73325;51.138;6.950;2024-03-22T09:43:43;101241.00;;;16.43;77.77
71248;BME280;73325;51.138;6.950;2024-03-22T09:46:13;101238.00;;;16.48;77.24
71248;BME280;73325;51.138;6.950;2024-03-22T09:48:43;101237.00;;;16.55;75.22
71248;BME280;73325;51.138;6.950;2024-03-22T09:51:14;101235.00;;;16.62;75.28
71248;BME280;73325;51.138;6.950;2024-03-22T09:53:44;101232.00;;;16.71;74.92
71248;BME280;73325;51.138;6.950;2024-03-22T09:56:15;101231.00;;;16.81;74.46
71248;BME280;73325;51.138;6.950;2024-03-22T09:58:45;101230.00;;;16.91;73.65
71248;BME280;73325;51.138;6.950;2024-03-22T10:01:16;101228.00;;;17.01;73.54
71248;BME280;73325;51.138;6.950;2024-03-22T10:03:46;101226.00;;;17.10;73.86
71248;BME280;73325;51.138;6.950;2024-03-22T10:06:16;101224.00;;;17.17;73.04
71248;BME280;73325;51.138;6.950;2024-03-22T10:08:46;101223.00;;;17.22;72.82
71248;BME280;73325;51.138;6.950;2024-03-22T10:11:16;101220.00;;;17.24;72.80
71248;BME280;73325;51.138;6.950;2024-03-22T10:13:47;101218.00;;;17.23;73.87
71248;BME280;73325;51.138;6.950;2024-03-22T10:16:17;101216.00;;;17.21;73.99
71248;BME280;73325;51.138;6.950;2024-03-22T10:18:47;101213.00;;;17.17;74.22
71248;BME280;73325;51.138;6.950;2024-03-22T10:21:18;101212.00;;;17.13;73.72
71248;BME280;73325;51.138;6.950;2024-03-22T10:23:49;101209.00;;;17.07;72.86
71248;BME280;73325;51.138;6.950;2024-03-22T10:26:19;101206.00;;;17.02;74.47
71248;BME280;73325;51.138;6.950;2024-03-22T10:28:49;101205.00;;;16.96;74.18
71248;BME280;73325;51.138;6.950;2024-03-22T10:31:19;101202.00;;;16.90;74.07
71248;BME280;73325;51.138;6.950;2024-03-22T10:33:50;101199.00;;;16.84;75.40
71248;BME280;73325;51.138;6.950;2024-03-22T10:36:20;101197.00;;;16.79;75.41
71248;BME280;73325;51.138;6.950;2024-03-22T10:38:52;101194.00;;;16.75;75.14
71248;BME280;73325;51.138;6.950;2024-03-22T10:41:22;101192.00;;;16.72;75.36
71248;BME280;73325;51.138;6.950;2024-03-22T10:43:52;101189.00;;;16.70;75.69
71248;BME280;73325;51.138;6.950;2024-03-22T10:46:29;101186.00;;;16.71;76.63
71248;BME280;73325;51.138;6.950;2024-03-22T10:48:55;101184.00;;;16.74;76.21
71248;BME280;73325;51.138;6.950;2024-03-22T10:51:25;101180.00;;;16.79;75.97
71248;BME280;73325;51.138;6.950;2024-03-22T10:53:56;101176.00;;;16.85;75.86
71248;BME280;73325;51.138;6.950;2024-03-22T10:56:26;101172.00;;;16.90;75.55
71248;BME280;73325;51.138;6.950;2024-03-22T10:58:57;101169.00;;;16.95;75.43
71248;BME280;73325;51.138;6.950;2024-03-22T11:01:27;101167.00;;;16.99;74.93
71248;BME280;73325;51.138;6.950;2024-03-22T11:04:04;101162.00;;;17.04;75.22
71248;BME280;73325;51.138;6.950;2024-03-22T11:06:28;101157.00;;;17.06;73.86
71248;BME280;73325;51.138;6.950;2024-03-22T11:09:01;101152.00;;;17.07;74.60
71248;BME280;73325;51.138;6.950;2024-03-22T11:11:29;101147.00;;;17.07;73.93
71248;BME280;73325;51.138;6.950;2024-03-22T11:13:59;101145.00;;;17.05;73.73
71248;BME280;73325;51.138;6.950;2024-03-22T11:16:30;101142.00;;;17.01;73.00
71248;BME280;73325;51.138;6.950;2024-03-22T11:19:00;101140.00;;;16.96;73.36
71248;BME280;73325;51.138;6.950;2024-03-22T11:21:33;101137.00;;;16.90;75.79
71248;BME280;73325;51.138;6.950;2024-03-22T11:24:01;101136.00;;;16.83;74.68
71248;BME280;73325;51.138;6.950;2024-03-22T11:26:32;101134.00;;;16.76;74.51
71248;BME280;73325;51.138;6.950;2024-03-22T11:29:03;101131.00;;;16.68;75.99
71248;BME280;73325;51.138;6.950;2024-03-22T11:31:33;101129.00;;;16.62;75.52
71248;BME280;73325;51.138;6.950;2024-03-22T11:34:03;101125.00;;;16.57;75.82
71248;BME280;73325;51.138;6.950;2024-03-22T11:36:35;101123.00;;;16.53;75.98
71248;BME280;73325;51.138;6.950;2024-03-22T11:39:04;101120.00;;;16.52;76.89
71248;BME280;73325;51.138;6.950;2024-03-22T11:41:35;101118.00;;;16.54;74.88
71248;BME280;73325;51.138;6.950;2024-03-22T11:44:06;101117.00;;;16.56;74.44
71248;BME280;73325;51.138;6.950;2024-03-22T11:46:36;101116.00;;;16.57;74.03
71248;BME280;73325;51.138;6.950;2024-03-22T11:49:07;101116.00;;;16.59;75.10
71248;BME280;73325;51.138;6.950;2024-03-22T11:51:38;101117.00;;;16.62;74.34
71248;BME280;73325;51.138;6.950;2024-03-22T11:54:07;101115.00;;;16.65;74.19
71248;BME280;73325;51.138;6.950;2024-03-22T11:56:39;101113.00;;;16.68;74.01
71248;BME280;73325;51.138;6.950;2024-03-22T11:59:07;101111.00;;;16.71;74.22
71248;BME280;73325;51.138;6.950;2024-03-22T12:01:38;101110.00;;;16.75;74.00
71248;BME280;73325;51.138;6.950;2024-03-22T12:04:09;101108.00;;;16.80;73.56
71248;BME280;73325;51.138;6.950;2024-03-22T12:06:41;101107.00;;;16.86;74.53
71248;BME280;73325;51.138;6.950;2024-03-22T12:09:09;101104.00;;;16.91;73.24
71248;BME280;73325;51.138;6.950;2024-03-22T12:11:40;101103.00;;;16.95;73.23
71248;BME280;73325;51.138;6.950;2024-03-22T12:14:10;101101.00;;;16.98;73.12
71248;BME280;73325;51.138;6.950;2024-03-22T12:16:40;101100.00;;;17.00;72.51
71248;BME280;73325;51.138;6.950;2024-03-22T12:19:11;101098.00;;;17.04;72.79
71248;BME280;73325;51.138;6.950;2024-03-22T12:21:41;101095.00;;;17.08;73.60
71248;BME280;73325;51.138;6.950;2024-03-22T12:24:11;101094.00;;;17.11;72.29
71248;BME280;73325;51.138;6.950;2024-03-22T12:26:41;101092.00;;;17.14;71.26
71248;BME280;73325;51.138;6.950;2024-03-22T12:29:17;101090.00;;;17.17;71.68
71248;BME280;73325;51.138;6.950;2024-03-22T12:31:43;101088.00;;;17.20;73.69
71248;BME280;73325;51.138;6.950;2024-03-22T12:34:13;101086.00;;;17.22;72.13
71248;BME280;73325;51.138;6.950;2024-03-22T12:36:43;101082.00;;;17.24;71.03
71248;BME280;73325;51.138;6.950;2024-03-22T12:39:13;101079.00;;;17.26;71.69
71248;BME280;73325;51.138;6.950;2024-03-22T12:41:44;101075.00;;;17.28;71.17
71248;BME280;73325;51.138;6.950;2024-03-22T12:44:14;101071.00;;;17.32;72.16
71248;BME280;73325;51.138;6.950;2024-03-22T12:46:45;101067.00;;;17.35;71.85
71248;BME280;73325;51.138;6.950;2024-03-22T12:49:18;101065.00;;;17.35;71.66
71248;BME280;73325;51.138;6.950;2024-03-22T12:51:45;101061.00;;;17.32;71.32
71248;BME280;73325;51.138;6.950;2024-03-22T12:54:16;101058.00;;;17.26;72.44
71248;BME280;73325;51.138;6.950;2024-03-22T12:56:48;101053.00;;;17.18;73.14
71248;BME280;73325;51.138;6.950;2024-03-22T12:59:16;101046.00;;;17.10;73.51
71248;BME280;73325;51.138;6.950;2024-03-22T13:01:46;101042.00;;;17.03;73.29
71248;BME280;73325;51.138;6.950;2024-03-22T13:04:17;101037.00;;;16.98;73.55
71248;BME280;73325;51.138;6.950;2024-03-22T13:06:47;101034.00;;;16.93;74.50